Time;durP1;ratioP1;P1;durP2;ratioP2;P2;SDS_P1;SDS_P2;PMS_P1;PMS_P2;Temp;Humidity;BMP_temperature;BMP_pressure;BME280_temperature;BME280_humidity;BME280_pressure;Samples;Min_cycle;Max_cycle;Signal;HPM_P1;HPM_P2
2023/08/07 00:00:12;;;;;;;5.20;1.40;;;;;;;;;;782049;176;919730;-65
2023/08/07 00:02:37;;;;;;;4.87;2.20;;;;;;;;;;784721;176;918446;-63
2023/08/07 00:05:03;;;;;;;2.77;1.50;;;;;;;;;;775994;179;919420;-66
2023/08/07 00:07:29;;;;;;;5.10;1.40;;;;;;;;;;780519;176;859071;-62
2023/08/07 00:09:55;;;;;;;4.77;1.70;;;;;;;;;;782675;176;918839;-63
2023/08/07 00:12:20;;;;;;;4.23;1.73;;;;;;;;;;786995;176;917200;-67
2023/08/07 00:14:47;;;;;;;2.30;1.37;;;;;;;;;;782127;176;907859;-63
2023/08/07 00:17:13;;;;;;;2.30;1.20;;;;;;;;;;781607;176;922215;-63
2023/08/07 00:19:39;;;;;;;4.33;1.43;;;;;;;;;;789282;176;851103;-63
2023/08/07 00:22:05;;;;;;;3.23;1.17;;;;;;;;;;785341;176;921178;-63
2023/08/07 00:24:31;;;;;;;3.93;1.73;;;;;;;;;;780766;176;919591;-63
2023/08/07 00:26:56;;;;;;;2.20;1.30;;;;;;;;;;780461;176;919743;-63
2023/08/07 00:29:22;;;;;;;9.20;1.30;;;;;;;;;;773275;179;918613;-65
2023/08/07 00:31:48;;;;;;;3.23;1.07;;;;;;;;;;784244;176;918637;-61
2023/08/07 00:34:14;;;;;;;5.53;1.37;;;;;;;;;;785380;176;919842;-63
2023/08/07 00:36:40;;;;;;;2.23;1.00;;;;;;;;;;788373;176;919471;-66
2023/08/07 00:39:07;;;;;;;2.40;1.10;;;;;;;;;;780811;176;920607;-63
2023/08/07 00:41:31;;;;;;;3.30;1.27;;;;;;;;;;780229;176;909485;-63
2023/08/07 00:43:57;;;;;;;9.60;1.27;;;;;;;;;;787735;176;871817;-67
2023/08/07 00:46:23;;;;;;;2.53;1.30;;;;;;;;;;775190;179;919509;-61
2023/08/07 00:48:49;;;;;;;2.07;1.03;;;;;;;;;;778873;176;918581;-62
2023/08/07 00:51:15;;;;;;;9.20;1.13;;;;;;;;;;785039;176;806595;-66
2023/08/07 00:53:41;;;;;;;3.33;1.10;;;;;;;;;;781925;176;918067;-66
2023/08/07 00:56:06;;;;;;;8.27;1.10;;;;;;;;;;788250;176;850610;-66
2023/08/07 00:58:32;;;;;;;2.47;1.10;;;;;;;;;;781444;176;869717;-66
2023/08/07 01:00:58;;;;;;;3.23;1.10;;;;;;;;;;791020;176;887814;-62
2023/08/07 01:03:24;;;;;;;2.70;1.13;;;;;;;;;;784655;176;924971;-64
2023/08/07 01:05:50;;;;;;;3.27;0.97;;;;;;;;;;784567;176;920745;-63
2023/08/07 01:08:16;;;;;;;2.53;0.97;;;;;;;;;;784742;176;916079;-64
2023/08/07 01:10:44;;;;;;;2.20;1.20;;;;;;;;;;783134;176;916040;-66
2023/08/07 01:13:16;;;;;;;1.73;0.80;;;;;;;;;;782810;176;873195;-62
2023/08/07 01:15:42;;;;;;;1.90;0.90;;;;;;;;;;784602;176;919599;-64
2023/08/07 01:18:08;;;;;;;8.10;1.13;;;;;;;;;;787327;176;919736;-65
2023/08/07 01:20:34;;;;;;;2.00;0.90;;;;;;;;;;780974;176;919177;-66
2023/08/07 01:22:59;;;;;;;3.70;0.90;;;;;;;;;;776899;176;917786;-63
2023/08/07 01:25:26;;;;;;;3.80;1.07;;;;;;;;;;790741;175;918195;-62
2023/08/07 01:27:51;;;;;;;3.23;1.20;;;;;;;;;;782135;176;919636;-67
2023/08/07 01:30:18;;;;;;;1.90;0.90;;;;;;;;;;784093;176;914125;-62
2023/08/07 01:32:59;;;;;;;3.10;0.83;;;;;;;;;;784052;176;915246;-65
2023/08/07 01:35:25;;;;;;;4.33;1.00;;;;;;;;;;781427;176;919930;-67
2023/08/07 01:37:51;;;;;;;3.40;1.27;;;;;;;;;;780865;178;916056;-68
2023/08/07 01:40:17;;;;;;;1.77;0.70;;;;;;;;;;783280;176;917744;-67
2023/08/07 01:42:43;;;;;;;3.57;1.00;;;;;;;;;;781903;179;819008;-67
2023/08/07 01:45:09;;;;;;;2.33;0.90;;;;;;;;;;789166;176;817259;-63
2023/08/07 01:47:35;;;;;;;3.90;0.97;;;;;;;;;;783416;176;918241;-63
2023/08/07 01:50:00;;;;;;;3.70;1.00;;;;;;;;;;781018;178;919974;-63
2023/08/07 01:52:26;;;;;;;2.57;1.00;;;;;;;;;;789197;176;847956;-64
2023/08/07 01:54:52;;;;;;;3.87;0.90;;;;;;;;;;780298;176;919773;-63
2023/08/07 01:57:18;;;;;;;6.97;0.93;;;;;;;;;;781965;177;919113;-63
2023/08/07 01:59:44;;;;;;;5.50;1.10;;;;;;;;;;791406;176;919294;-67
2023/08/07 02:02:10;;;;;;;3.00;0.80;;;;;;;;;;785362;176;918319;-67
2023/08/07 02:04:35;;;;;;;4.63;0.97;;;;;;;;;;780862;176;919828;-67
2023/08/07 02:07:01;;;;;;;2.13;1.07;;;;;;;;;;775790;179;918802;-66
2023/08/07 02:09:27;;;;;;;4.10;1.27;;;;;;;;;;779312;179;874926;-67
2023/08/07 02:11:53;;;;;;;3.13;1.10;;;;;;;;;;781695;176;891151;-66
2023/08/07 02:14:19;;;;;;;5.50;0.90;;;;;;;;;;782708;176;919341;-65
2023/08/07 02:16:45;;;;;;;2.37;1.00;;;;;;;;;;794422;176;919173;-61
2023/08/07 02:19:10;;;;;;;2.27;1.10;;;;;;;;;;785910;176;919755;-61
2023/08/07 02:21:36;;;;;;;2.58;1.50;;;;;;;;;;778057;180;943343;-65
2023/08/07 02:24:02;;;;;;;3.80;1.20;;;;;;;;;;787670;177;919661;-60
2023/08/07 02:26:28;;;;;;;7.47;1.63;;;;;;;;;;786348;176;919760;-61
2023/08/07 02:28:54;;;;;;;6.83;1.30;;;;;;;;;;784468;176;918732;-61
2023/08/07 02:31:20;;;;;;;7.43;1.00;;;;;;;;;;781615;176;919654;-65
2023/08/07 02:33:45;;;;;;;3.80;1.20;;;;;;;;;;787426;176;919039;-64
2023/08/07 02:36:11;;;;;;;2.00;0.90;;;;;;;;;;783624;176;858767;-65
2023/08/07 02:38:38;;;;;;;2.63;0.90;;;;;;;;;;781607;176;920056;-65
2023/08/07 02:41:03;;;;;;;2.73;1.30;;;;;;;;;;785205;176;921519;-61
2023/08/07 02:43:29;;;;;;;2.20;1.23;;;;;;;;;;779700;176;919331;-65
2023/08/07 02:45:55;;;;;;;1.90;0.90;;;;;;;;;;785256;176;816706;-63
2023/08/07 02:48:21;;;;;;;2.20;1.10;;;;;;;;;;786024;178;853703;-65
2023/08/07 02:50:46;;;;;;;2.00;1.00;;;;;;;;;;784345;176;916327;-62
2023/08/07 02:53:12;;;;;;;2.17;1.17;;;;;;;;;;781511;176;918517;-61
2023/08/07 02:55:38;;;;;;;5.43;1.30;;;;;;;;;;783786;176;918704;-65
2023/08/07 02:58:04;;;;;;;4.17;0.90;;;;;;;;;;777726;180;919195;-62
2023/08/07 03:00:30;;;;;;;3.27;1.20;;;;;;;;;;773049;180;819107;-64
2023/08/07 03:02:56;;;;;;;2.73;1.07;;;;;;;;;;780147;178;841868;-63
2023/08/07 03:05:21;;;;;;;6.73;1.10;;;;;;;;;;783839;178;916310;-66
2023/08/07 03:07:47;;;;;;;6.17;1.00;;;;;;;;;;787225;176;916554;-62
2023/08/07 03:10:13;;;;;;;2.90;1.00;;;;;;;;;;786405;176;915278;-65
2023/08/07 03:12:39;;;;;;;2.00;0.80;;;;;;;;;;787766;176;916807;-65
2023/08/07 03:15:05;;;;;;;1.83;0.80;;;;;;;;;;772135;179;916266;-66
2023/08/07 03:17:31;;;;;;;2.10;0.90;;;;;;;;;;774182;179;917408;-65
2023/08/07 03:19:57;;;;;;;1.93;0.87;;;;;;;;;;784997;178;919902;-63
2023/08/07 03:22:23;;;;;;;2.10;0.90;;;;;;;;;;784017;176;919831;-63
2023/08/07 03:24:49;;;;;;;3.43;1.00;;;;;;;;;;783417;176;919708;-61
2023/08/07 03:27:15;;;;;;;2.30;1.17;;;;;;;;;;784281;176;918982;-63
2023/08/07 03:29:40;;;;;;;1.90;0.80;;;;;;;;;;788875;176;920809;-63
2023/08/07 03:32:06;;;;;;;3.27;1.40;;;;;;;;;;781290;176;919168;-62
2023/08/07 03:34:32;;;;;;;2.10;1.17;;;;;;;;;;793253;176;921670;-63
2023/08/07 03:36:59;;;;;;;3.90;1.20;;;;;;;;;;781948;180;919027;-64
2023/08/07 03:39:25;;;;;;;2.67;1.40;;;;;;;;;;780087;176;921765;-63
2023/08/07 03:41:50;;;;;;;2.40;1.20;;;;;;;;;;784104;176;918899;-63
2023/08/07 03:44:16;;;;;;;3.50;1.37;;;;;;;;;;785195;176;917233;-63
2023/08/07 03:46:42;;;;;;;2.47;1.00;;;;;;;;;;782632;176;920380;-66
2023/08/07 03:49:08;;;;;;;4.73;1.40;;;;;;;;;;781871;176;919282;-63
2023/08/07 03:51:34;;;;;;;4.97;1.60;;;;;;;;;;784781;176;817048;-65
2023/08/07 03:54:00;;;;;;;3.33;1.00;;;;;;;;;;780391;179;819103;-63
2023/08/07 03:56:26;;;;;;;2.30;1.03;;;;;;;;;;778999;179;816878;-64
2023/08/07 03:58:52;;;;;;;2.20;1.70;;;;;;;;;;787964;176;919266;-63
2023/08/07 04:01:17;;;;;;;2.30;1.10;;;;;;;;;;775757;178;919020;-62
2023/08/07 04:03:43;;;;;;;9.23;0.90;;;;;;;;;;773367;180;920107;-65
2023/08/07 04:06:12;;;;;;;3.67;1.00;;;;;;;;;;782897;176;1044116;-65
2023/08/07 04:08:35;;;;;;;10.57;1.30;;;;;;;;;;785966;178;918906;-63
2023/08/07 04:11:01;;;;;;;4.73;1.10;;;;;;;;;;781950;178;918756;-63
2023/08/07 04:13:26;;;;;;;3.30;1.10;;;;;;;;;;784544;176;920821;-65
2023/08/07 04:15:53;;;;;;;4.75;1.10;;;;;;;;;;786777;178;919476;-63
2023/08/07 04:18:19;;;;;;;1.80;0.80;;;;;;;;;;788833;178;819912;-63
2023/08/07 04:20:50;;;;;;;2.27;1.00;;;;;;;;;;779657;176;918243;-66
2023/08/07 04:23:15;;;;;;;5.80;1.20;;;;;;;;;;785660;176;920945;-62
2023/08/07 04:25:41;;;;;;;8.73;1.10;;;;;;;;;;787686;176;921503;-65
2023/08/07 04:28:07;;;;;;;3.90;0.93;;;;;;;;;;780481;178;922482;-62
2023/08/07 04:30:33;;;;;;;2.87;1.00;;;;;;;;;;784742;176;923700;-62
2023/08/07 04:32:59;;;;;;;3.43;1.20;;;;;;;;;;785344;178;853593;-63
2023/08/07 04:35:25;;;;;;;5.03;2.23;;;;;;;;;;783343;176;815574;-62
2023/08/07 04:37:51;;;;;;;3.37;1.10;;;;;;;;;;781577;176;922849;-64
2023/08/07 04:40:16;;;;;;;3.67;1.10;;;;;;;;;;777178;177;917914;-64
2023/08/07 04:42:42;;;;;;;3.90;1.00;;;;;;;;;;786251;176;907145;-65
2023/08/07 04:45:09;;;;;;;1.90;0.90;;;;;;;;;;782533;176;816599;-62
2023/08/07 04:47:34;;;;;;;5.83;1.27;;;;;;;;;;784175;176;856070;-61
2023/08/07 04:50:00;;;;;;;2.93;1.10;;;;;;;;;;785832;178;913241;-65
2023/08/07 04:52:26;;;;;;;2.57;0.93;;;;;;;;;;785013;176;900137;-62
2023/08/07 04:54:52;;;;;;;2.97;0.90;;;;;;;;;;775275;179;919750;-64
2023/08/07 04:57:18;;;;;;;2.20;0.90;;;;;;;;;;787989;176;915092;-61
2023/08/07 04:59:43;;;;;;;3.13;0.83;;;;;;;;;;783370;178;917982;-62
2023/08/07 05:02:09;;;;;;;1.80;0.80;;;;;;;;;;778908;176;919020;-61
2023/08/07 05:04:35;;;;;;;4.83;0.90;;;;;;;;;;781868;176;921881;-65
2023/08/07 05:07:01;;;;;;;1.97;0.83;;;;;;;;;;781564;176;900829;-63
2023/08/07 05:09:27;;;;;;;2.90;0.90;;;;;;;;;;777206;180;917285;-63
2023/08/07 05:11:53;;;;;;;4.73;1.00;;;;;;;;;;778337;176;916687;-63
2023/08/07 05:14:18;;;;;;;3.43;0.90;;;;;;;;;;784088;179;915169;-61
2023/08/07 05:16:44;;;;;;;2.17;1.00;;;;;;;;;;782694;176;911556;-63
2023/08/07 05:19:10;;;;;;;2.23;0.97;;;;;;;;;;781783;176;908757;-60
2023/08/07 05:21:36;;;;;;;4.77;0.90;;;;;;;;;;785581;176;918012;-62
2023/08/07 05:24:02;;;;;;;3.40;0.80;;;;;;;;;;782734;176;919471;-65
2023/08/07 05:26:29;;;;;;;3.07;0.90;;;;;;;;;;784468;176;920969;-61
2023/08/07 05:28:56;;;;;;;4.57;0.95;;;;;;;;;;779818;176;918907;-61
2023/08/07 05:31:19;;;;;;;2.57;1.23;;;;;;;;;;775549;179;921008;-61
2023/08/07 05:33:45;;;;;;;2.43;0.80;;;;;;;;;;788601;174;917515;-61
2023/08/07 05:36:11;;;;;;;1.97;0.83;;;;;;;;;;790058;176;910186;-61
2023/08/07 05:38:37;;;;;;;2.37;0.90;;;;;;;;;;787681;176;920745;-61
2023/08/07 05:41:03;;;;;;;2.43;0.90;;;;;;;;;;781562;176;912091;-61
2023/08/07 05:43:29;;;;;;;3.40;0.80;;;;;;;;;;784490;176;818274;-60
2023/08/07 05:45:54;;;;;;;2.27;0.70;;;;;;;;;;789176;176;816106;-65
2023/08/07 05:48:21;;;;;;;2.20;0.80;;;;;;;;;;781505;176;852374;-61
2023/08/07 05:50:46;;;;;;;13.33;1.10;;;;;;;;;;784700;176;921434;-66
2023/08/07 05:53:12;;;;;;;1.90;0.87;;;;;;;;;;788965;176;885636;-64
2023/08/07 05:55:39;;;;;;;1.70;0.70;;;;;;;;;;783103;176;870095;-61
2023/08/07 05:58:05;;;;;;;1.80;0.80;;;;;;;;;;784435;176;915576;-60
2023/08/07 06:00:30;;;;;;;1.70;0.70;;;;;;;;;;784322;176;914428;-64
2023/08/07 06:02:56;;;;;;;3.40;0.87;;;;;;;;;;788753;176;859925;-64
2023/08/07 06:05:22;;;;;;;2.07;0.90;;;;;;;;;;781932;176;917489;-63
2023/08/07 06:07:48;;;;;;;3.10;0.70;;;;;;;;;;780828;176;917375;-65
2023/08/07 06:10:14;;;;;;;1.93;0.90;;;;;;;;;;785168;178;921382;-64
2023/08/07 06:12:40;;;;;;;1.80;0.70;;;;;;;;;;783773;176;926543;-61
2023/08/07 06:15:06;;;;;;;1.77;0.73;;;;;;;;;;780222;178;920502;-60
2023/08/07 06:17:32;;;;;;;2.20;1.27;;;;;;;;;;787777;176;919039;-60
2023/08/07 06:19:58;;;;;;;3.00;0.80;;;;;;;;;;785451;176;921966;-60
2023/08/07 06:22:23;;;;;;;2.10;0.80;;;;;;;;;;781716;176;909294;-60
2023/08/07 06:24:49;;;;;;;2.00;0.80;;;;;;;;;;781803;176;917307;-64
2023/08/07 06:27:15;;;;;;;1.80;0.80;;;;;;;;;;790271;176;921810;-64
2023/08/07 06:29:41;;;;;;;5.80;1.17;;;;;;;;;;779044;175;820620;-66
2023/08/07 06:32:07;;;;;;;4.33;0.83;;;;;;;;;;787095;175;821952;-65
2023/08/07 06:34:33;;;;;;;1.70;0.70;;;;;;;;;;787083;176;918025;-64
2023/08/07 06:36:59;;;;;;;2.93;0.80;;;;;;;;;;781695;176;924862;-63
2023/08/07 06:39:25;;;;;;;1.70;0.70;;;;;;;;;;778874;176;904691;-59
2023/08/07 06:41:50;;;;;;;2.00;0.83;;;;;;;;;;786824;176;820026;-64
2023/08/07 06:44:16;;;;;;;1.80;0.70;;;;;;;;;;781501;176;809275;-64
2023/08/07 06:46:42;;;;;;;1.87;0.90;;;;;;;;;;781911;176;909404;-63
2023/08/07 06:49:08;;;;;;;1.92;0.80;;;;;;;;;;784385;176;911515;-64
2023/08/07 06:51:34;;;;;;;1.73;0.70;;;;;;;;;;777164;179;1013068;-61
2023/08/07 06:53:59;;;;;;;2.23;0.70;;;;;;;;;;782070;176;880632;-61
2023/08/07 06:56:25;;;;;;;2.47;0.97;;;;;;;;;;785189;176;916594;-61
2023/08/07 06:58:51;;;;;;;4.70;0.90;;;;;;;;;;785762;176;913745;-61
2023/08/07 07:01:17;;;;;;;3.53;0.90;;;;;;;;;;781448;176;969848;-65
2023/08/07 07:03:46;;;;;;;1.80;0.80;;;;;;;;;;784742;176;819528;-64
2023/08/07 07:06:09;;;;;;;3.87;0.83;;;;;;;;;;788716;176;820607;-61
2023/08/07 07:08:35;;;;;;;1.87;0.90;;;;;;;;;;780393;176;921418;-61
2023/08/07 07:11:00;;;;;;;6.00;1.20;;;;;;;;;;779163;176;1023603;-61
2023/08/07 07:13:26;;;;;;;1.80;0.80;;;;;;;;;;789742;176;920789;-60
2023/08/07 07:15:53;;;;;;;2.10;1.10;;;;;;;;;;782039;176;919409;-61
2023/08/07 07:18:19;;;;;;;4.40;1.30;;;;;;;;;;780084;176;920510;-61
2023/08/07 07:20:45;;;;;;;2.00;0.87;;;;;;;;;;782530;178;916772;-61
2023/08/07 07:23:10;;;;;;;3.60;1.00;;;;;;;;;;785911;176;716167;-61
2023/08/07 07:25:36;;;;;;;2.13;1.00;;;;;;;;;;784734;176;920230;-61
2023/08/07 07:28:02;;;;;;;2.30;1.00;;;;;;;;;;785404;176;918506;-61
2023/08/07 07:30:28;;;;;;;3.40;0.90;;;;;;;;;;784882;179;922052;-60
2023/08/07 07:32:54;;;;;;;2.47;0.93;;;;;;;;;;779062;177;919125;-61
2023/08/07 07:35:20;;;;;;;3.40;1.00;;;;;;;;;;781900;178;917810;-63
2023/08/07 07:37:45;;;;;;;3.53;1.03;;;;;;;;;;787073;176;917847;-64
2023/08/07 07:40:11;;;;;;;2.47;0.90;;;;;;;;;;782939;176;848674;-63
2023/08/07 07:42:37;;;;;;;3.40;1.00;;;;;;;;;;782224;176;818247;-59
2023/08/07 07:45:04;;;;;;;1.80;0.80;;;;;;;;;;783802;176;794407;-62
2023/08/07 07:47:29;;;;;;;2.37;0.90;;;;;;;;;;787046;176;815005;-65
2023/08/07 07:49:55;;;;;;;1.90;0.90;;;;;;;;;;779360;176;921270;-61
2023/08/07 07:52:21;;;;;;;2.00;1.00;;;;;;;;;;779352;176;937360;-61
2023/08/07 07:54:47;;;;;;;2.15;1.10;;;;;;;;;;787532;176;907724;-65
2023/08/07 07:57:13;;;;;;;2.40;0.80;;;;;;;;;;781984;176;919398;-62
2023/08/07 07:59:39;;;;;;;2.00;0.80;;;;;;;;;;785406;176;918279;-64
2023/08/07 08:02:05;;;;;;;2.00;0.90;;;;;;;;;;786207;176;922462;-65
2023/08/07 08:04:30;;;;;;;2.00;1.07;;;;;;;;;;781623;177;921872;-61
2023/08/07 08:06:56;;;;;;;2.03;0.90;;;;;;;;;;779826;176;919744;-66
2023/08/07 08:09:22;;;;;;;1.90;0.80;;;;;;;;;;780338;178;919296;-65
2023/08/07 08:11:48;;;;;;;3.27;1.00;;;;;;;;;;785786;178;915037;-64
2023/08/07 08:14:14;;;;;;;2.93;0.90;;;;;;;;;;782697;176;912759;-64
2023/08/07 08:16:40;;;;;;;2.10;1.00;;;;;;;;;;789274;176;642009;-61
2023/08/07 08:19:08;;;;;;;2.27;0.80;;;;;;;;;;793215;176;623926;-60
2023/08/07 08:21:31;;;;;;;2.40;1.43;;;;;;;;;;781432;178;920550;-64
2023/08/07 08:23:57;;;;;;;2.33;0.87;;;;;;;;;;784550;178;920293;-60
2023/08/07 08:26:23;;;;;;;2.30;0.90;;;;;;;;;;785739;179;913032;-64
2023/08/07 08:28:49;;;;;;;1.80;0.80;;;;;;;;;;782903;176;817363;-63
2023/08/07 08:31:15;;;;;;;2.07;0.80;;;;;;;;;;783760;176;816600;-60
2023/08/07 08:33:40;;;;;;;2.47;1.00;;;;;;;;;;786957;176;630950;-61
2023/08/07 08:36:06;;;;;;;1.87;0.87;;;;;;;;;;790432;178;619031;-64
2023/08/07 08:38:33;;;;;;;2.20;0.70;;;;;;;;;;790075;176;614562;-64
2023/08/07 08:40:58;;;;;;;1.90;0.80;;;;;;;;;;790547;176;814845;-61
2023/08/07 08:43:24;;;;;;;1.90;0.80;;;;;;;;;;781699;176;893887;-63
2023/08/07 08:45:50;;;;;;;3.07;0.90;;;;;;;;;;777121;179;919555;-61
2023/08/07 08:48:17;;;;;;;1.80;0.80;;;;;;;;;;773361;179;918573;-63
2023/08/07 08:50:41;;;;;;;1.70;0.80;;;;;;;;;;778084;179;918740;-64
2023/08/07 08:53:07;;;;;;;3.40;0.87;;;;;;;;;;784514;176;817052;-60
2023/08/07 08:55:33;;;;;;;2.83;1.00;;;;;;;;;;777591;179;916031;-60
2023/08/07 08:58:00;;;;;;;2.63;1.00;;;;;;;;;;782023;176;918854;-61
2023/08/07 09:00:25;;;;;;;3.40;0.90;;;;;;;;;;779032;177;919582;-63
2023/08/07 09:02:51;;;;;;;2.28;0.80;;;;;;;;;;788349;176;919118;-63
2023/08/07 09:05:16;;;;;;;3.00;0.80;;;;;;;;;;781429;176;919080;-60
2023/08/07 09:07:42;;;;;;;2.57;1.00;;;;;;;;;;788700;176;919201;-63
2023/08/07 09:10:09;;;;;;;2.93;1.00;;;;;;;;;;784629;176;919725;-61
2023/08/07 09:12:34;;;;;;;2.00;0.97;;;;;;;;;;783741;176;917206;-63
2023/08/07 09:15:00;;;;;;;2.00;0.80;;;;;;;;;;789204;176;916376;-64
2023/08/07 09:17:27;;;;;;;3.67;1.07;;;;;;;;;;783378;176;905265;-60
2023/08/07 09:19:53;;;;;;;2.03;1.00;;;;;;;;;;785845;176;918059;-64
2023/08/07 09:22:19;;;;;;;2.40;1.03;;;;;;;;;;787460;176;919917;-66
2023/08/07 09:24:45;;;;;;;2.70;1.03;;;;;;;;;;781916;176;919922;-62
2023/08/07 09:27:10;;;;;;;5.77;1.00;;;;;;;;;;784896;176;919101;-61
2023/08/07 09:29:36;;;;;;;2.90;1.07;;;;;;;;;;781908;178;919488;-62
2023/08/07 09:32:09;;;;;;;3.77;1.27;;;;;;;;;;782680;176;918901;-65
2023/08/07 09:34:35;;;;;;;4.87;1.40;;;;;;;;;;781462;176;919770;-61
2023/08/07 09:37:01;;;;;;;2.80;1.03;;;;;;;;;;787613;176;917265;-62
2023/08/07 09:39:27;;;;;;;4.63;1.10;;;;;;;;;;785868;178;916782;-62
2023/08/07 09:41:52;;;;;;;2.70;1.10;;;;;;;;;;787146;176;920190;-61
2023/08/07 09:44:18;;;;;;;3.83;1.00;;;;;;;;;;783508;176;920822;-63
2023/08/07 09:46:44;;;;;;;2.07;1.00;;;;;;;;;;779612;179;918888;-61
2023/08/07 09:49:10;;;;;;;2.10;1.00;;;;;;;;;;787466;176;919447;-61
2023/08/07 09:51:42;;;;;;;3.30;1.47;;;;;;;;;;779378;176;920319;-61
2023/08/07 09:54:07;;;;;;;3.63;1.20;;;;;;;;;;782418;176;919593;-61
2023/08/07 09:56:33;;;;;;;2.20;1.00;;;;;;;;;;793003;176;918381;-62
2023/08/07 09:58:59;;;;;;;2.33;1.00;;;;;;;;;;777540;178;919182;-65
2023/08/07 10:01:25;;;;;;;2.40;0.93;;;;;;;;;;784282;176;918838;-64
2023/08/07 10:03:51;;;;;;;3.70;1.00;;;;;;;;;;779508;179;913282;-61
2023/08/07 10:06:17;;;;;;;2.10;0.90;;;;;;;;;;771871;179;919467;-62
2023/08/07 10:08:43;;;;;;;4.03;0.87;;;;;;;;;;769337;181;918919;-61
2023/08/07 10:11:10;;;;;;;5.73;0.87;;;;;;;;;;769920;180;920469;-60
2023/08/07 10:13:34;;;;;;;2.00;0.90;;;;;;;;;;790040;176;919061;-63
2023/08/07 10:16:00;;;;;;;1.90;0.80;;;;;;;;;;792067;176;943266;-64
2023/08/07 10:18:26;;;;;;;2.70;1.30;;;;;;;;;;771801;180;919548;-62
2023/08/07 10:20:52;;;;;;;2.30;1.10;;;;;;;;;;781444;179;919556;-63
2023/08/07 10:23:17;;;;;;;2.00;0.90;;;;;;;;;;780595;179;919523;-63
2023/08/07 10:25:44;;;;;;;5.30;1.03;;;;;;;;;;783902;176;918500;-62
2023/08/07 10:28:09;;;;;;;5.68;1.85;;;;;;;;;;790621;176;632606;-64
2023/08/07 10:30:35;;;;;;;2.87;0.90;;;;;;;;;;775121;179;620740;-65
2023/08/07 10:33:01;;;;;;;2.00;1.00;;;;;;;;;;779982;179;628839;-64
2023/08/07 10:35:30;;;;;;;3.13;1.13;;;;;;;;;;786943;176;917863;-64
2023/08/07 10:37:56;;;;;;;3.93;0.83;;;;;;;;;;777727;179;915765;-64
2023/08/07 10:40:22;;;;;;;2.10;1.00;;;;;;;;;;780548;176;920799;-59
2023/08/07 10:43:03;;;;;;;2.47;0.80;;;;;;;;;;780712;176;919374;-60
2023/08/07 10:45:29;;;;;;;2.20;0.73;;;;;;;;;;783652;176;919572;-64
2023/08/07 10:47:57;;;;;;;2.60;0.97;;;;;;;;;;786127;176;921273;-65
2023/08/07 10:50:30;;;;;;;2.47;1.20;;;;;;;;;;782503;176;919102;-61
2023/08/07 10:52:56;;;;;;;2.10;1.00;;;;;;;;;;781677;176;918686;-61
2023/08/07 10:55:23;;;;;;;1.97;0.93;;;;;;;;;;781608;178;916970;-63
2023/08/07 10:57:48;;;;;;;2.23;1.00;;;;;;;;;;784604;176;806062;-62
2023/08/07 11:00:14;;;;;;;2.20;0.80;;;;;;;;;;780181;176;914862;-60
2023/08/07 11:02:40;;;;;;;1.90;0.97;;;;;;;;;;780087;176;919466;-61
2023/08/07 11:05:06;;;;;;;2.40;1.37;;;;;;;;;;786956;176;917838;-60
2023/08/07 11:07:31;;;;;;;3.70;1.33;;;;;;;;;;781406;176;921124;-61
2023/08/07 11:09:57;;;;;;;2.40;1.13;;;;;;;;;;780068;176;923225;-61
2023/08/07 11:12:25;;;;;;;4.65;1.23;;;;;;;;;;781484;176;918519;-63
2023/08/07 11:14:52;;;;;;;4.57;1.40;;;;;;;;;;786712;176;919249;-65
2023/08/07 11:17:17;;;;;;;2.30;0.90;;;;;;;;;;780671;176;918841;-64
2023/08/07 11:19:42;;;;;;;5.20;1.35;;;;;;;;;;785630;176;859171;-60
2023/08/07 11:22:08;;;;;;;3.80;2.07;;;;;;;;;;786031;176;918997;-60
2023/08/07 11:24:34;;;;;;;1.95;0.98;;;;;;;;;;780674;176;919230;-60
2023/08/07 11:27:00;;;;;;;2.93;1.10;;;;;;;;;;782526;178;919473;-64
2023/08/07 11:29:26;;;;;;;2.30;1.10;;;;;;;;;;787986;178;661298;-64
2023/08/07 11:31:52;;;;;;;4.77;1.20;;;;;;;;;;785412;175;921095;-60
2023/08/07 11:34:18;;;;;;;3.80;1.10;;;;;;;;;;784552;175;919061;-64
2023/08/07 11:36:43;;;;;;;2.23;1.07;;;;;;;;;;792662;176;921304;-61
2023/08/07 11:39:09;;;;;;;3.50;1.67;;;;;;;;;;782895;176;817568;-60
2023/08/07 11:41:35;;;;;;;3.00;1.73;;;;;;;;;;782674;176;917514;-60
2023/08/07 11:44:01;;;;;;;5.17;1.50;;;;;;;;;;784472;178;919455;-64
2023/08/07 11:46:27;;;;;;;2.87;1.70;;;;;;;;;;790607;176;631188;-65
2023/08/07 11:48:54;;;;;;;3.10;1.97;;;;;;;;;;787573;178;625362;-64
2023/08/07 11:51:18;;;;;;;4.17;2.20;;;;;;;;;;790440;176;618517;-65
2023/08/07 11:53:44;;;;;;;4.03;2.70;;;;;;;;;;790082;176;623622;-64
2023/08/07 11:56:10;;;;;;;3.20;1.93;;;;;;;;;;784459;176;623171;-63
2023/08/07 11:58:37;;;;;;;3.00;2.07;;;;;;;;;;781540;176;902160;-60
2023/08/07 12:01:05;;;;;;;5.10;2.40;;;;;;;;;;784874;179;616424;-61
2023/08/07 12:03:30;;;;;;;4.47;2.80;;;;;;;;;;779943;178;633948;-61
2023/08/07 12:05:56;;;;;;;5.40;2.23;;;;;;;;;;782692;176;629196;-65
2023/08/07 12:08:22;;;;;;;3.50;2.23;;;;;;;;;;787552;176;625027;-64
2023/08/07 12:10:48;;;;;;;4.77;2.50;;;;;;;;;;786790;176;612110;-60
2023/08/07 12:13:14;;;;;;;7.57;1.90;;;;;;;;;;781513;179;623248;-60
2023/08/07 12:15:40;;;;;;;3.80;2.67;;;;;;;;;;777698;178;919005;-60
2023/08/07 12:18:06;;;;;;;3.80;2.30;;;;;;;;;;787472;176;918819;-59
2023/08/07 12:20:32;;;;;;;6.40;2.20;;;;;;;;;;781151;176;816815;-60
2023/08/07 12:22:58;;;;;;;3.10;2.10;;;;;;;;;;780991;176;855905;-58
2023/08/07 12:25:23;;;;;;;3.27;2.10;;;;;;;;;;782996;176;816760;-60
2023/08/07 12:27:49;;;;;;;5.60;2.63;;;;;;;;;;784249;178;919343;-60
2023/08/07 12:30:15;;;;;;;3.17;2.07;;;;;;;;;;779549;178;917532;-59
2023/08/07 12:32:41;;;;;;;3.00;2.23;;;;;;;;;;782232;176;919542;-62
2023/08/07 12:35:08;;;;;;;3.55;2.08;;;;;;;;;;789678;176;918091;-59
2023/08/07 12:37:33;;;;;;;4.60;2.60;;;;;;;;;;785759;176;918950;-62
2023/08/07 12:39:59;;;;;;;3.60;2.40;;;;;;;;;;782318;176;919090;-63
2023/08/07 12:42:25;;;;;;;3.90;2.43;;;;;;;;;;788241;176;917836;-59
2023/08/07 12:44:51;;;;;;;2.90;2.15;;;;;;;;;;780447;176;939616;-61
2023/08/07 12:47:17;;;;;;;4.30;2.27;;;;;;;;;;779688;176;918744;-60
2023/08/07 12:49:45;;;;;;;4.50;2.33;;;;;;;;;;782052;176;919454;-59
2023/08/07 12:52:09;;;;;;;3.07;2.00;;;;;;;;;;785617;176;819001;-59
2023/08/07 12:54:34;;;;;;;6.53;2.97;;;;;;;;;;782344;176;916937;-64
2023/08/07 12:57:00;;;;;;;2.90;1.50;;;;;;;;;;783423;176;919485;-60
2023/08/07 12:59:26;;;;;;;4.30;2.00;;;;;;;;;;784180;176;919240;-64
2023/08/07 13:01:53;;;;;;;3.80;2.20;;;;;;;;;;779559;176;918345;-64
2023/08/07 13:04:18;;;;;;;4.30;2.47;;;;;;;;;;780799;176;919128;-62
2023/08/07 13:06:44;;;;;;;5.33;2.10;;;;;;;;;;787804;176;818322;-59
2023/08/07 13:09:09;;;;;;;3.27;1.90;;;;;;;;;;782983;176;875245;-62
2023/08/07 13:11:35;;;;;;;4.13;1.73;;;;;;;;;;783223;176;917480;-63
2023/08/07 13:14:01;;;;;;;4.12;2.12;;;;;;;;;;783486;176;919801;-62
2023/08/07 13:16:27;;;;;;;4.03;2.40;;;;;;;;;;771655;179;919447;-63
2023/08/07 13:18:53;;;;;;;3.37;1.83;;;;;;;;;;777341;176;918361;-59
2023/08/07 13:21:19;;;;;;;3.50;2.67;;;;;;;;;;778788;176;918600;-63
2023/08/07 13:23:45;;;;;;;3.90;2.50;;;;;;;;;;785982;176;922563;-63
2023/08/07 13:26:11;;;;;;;4.90;2.27;;;;;;;;;;784141;176;818557;-61
2023/08/07 13:28:36;;;;;;;4.33;2.40;;;;;;;;;;789787;176;636991;-61
2023/08/07 13:31:02;;;;;;;3.40;2.40;;;;;;;;;;781372;178;801881;-60
2023/08/07 13:33:28;;;;;;;4.97;3.03;;;;;;;;;;781131;176;840565;-64
2023/08/07 13:35:54;;;;;;;4.40;2.10;;;;;;;;;;786602;176;633342;-64
2023/08/07 13:38:20;;;;;;;4.30;1.83;;;;;;;;;;790121;176;636960;-61
2023/08/07 13:40:46;;;;;;;4.00;1.90;;;;;;;;;;786518;176;615128;-61
2023/08/07 13:43:12;;;;;;;3.27;2.27;;;;;;;;;;786260;176;747039;-59
2023/08/07 13:45:38;;;;;;;4.60;2.80;;;;;;;;;;781833;176;812320;-64
2023/08/07 13:48:05;;;;;;;4.37;2.20;;;;;;;;;;784151;176;916799;-65
2023/08/07 13:50:29;;;;;;;3.63;2.50;;;;;;;;;;781301;176;912896;-60
2023/08/07 13:52:55;;;;;;;5.10;2.37;;;;;;;;;;780104;176;916090;-63
2023/08/07 13:55:21;;;;;;;3.17;2.33;;;;;;;;;;788041;176;919162;-60
2023/08/07 13:57:47;;;;;;;4.17;2.50;;;;;;;;;;782796;176;918918;-61
2023/08/07 14:00:13;;;;;;;4.33;2.27;;;;;;;;;;783686;176;919166;-63
2023/08/07 14:02:39;;;;;;;5.10;2.63;;;;;;;;;;785357;176;919120;-64
2023/08/07 14:05:05;;;;;;;8.63;3.13;;;;;;;;;;784355;176;626826;-64
2023/08/07 14:07:31;;;;;;;5.63;3.00;;;;;;;;;;787279;176;634838;-60
2023/08/07 14:09:57;;;;;;;3.53;2.57;;;;;;;;;;787337;176;660140;-61
2023/08/07 14:12:22;;;;;;;4.23;3.80;;;;;;;;;;785366;176;624344;-61
2023/08/07 14:14:48;;;;;;;9.50;5.10;;;;;;;;;;783902;176;646417;-61
2023/08/07 14:17:14;;;;;;;4.97;3.27;;;;;;;;;;779639;176;882075;-60
2023/08/07 14:19:40;;;;;;;5.67;3.30;;;;;;;;;;786954;176;820983;-60
2023/08/07 14:22:06;;;;;;;6.90;2.70;;;;;;;;;;781051;176;952105;-60